Aviation Digital Data Service (ADDS)

Output produced by METARs form (0914 UTC 06 July 2015)
found at http://aviationweather.gov/adds/metars/
 
KAUG 060525Z 0606/0706 VRB03KT P6SM SKC